Time;durP1;ratioP1;P1;durP2;ratioP2;P2;SDS_P1;SDS_P2;PMS_P1;PMS_P2;Temp;Humidity;BMP_temperature;BMP_pressure;BME280_temperature;BME280_humidity;BME280_pressure;Samples;Min_cycle;Max_cycle;Signal;HPM_P1;HPM_P2
2022/10/12 00:03:59;;;;;;;0.38;0.20;;;;;;;17.59;97.95;102280.91;20894515;27;20051;-75
2022/10/12 00:14:01;;;;;;;0.28;0.28;;;;;;;17.56;97.94;102271.22;20861986;27;20059;-75
2022/10/12 00:24:03;;;;;;;0.43;0.25;;;;;;;17.56;97.82;102268.53;20840672;27;20142;-76
2022/10/12 00:34:04;;;;;;;0.20;0.20;;;;;;;17.56;97.64;102264.97;20959683;27;20050;-75
2022/10/12 00:44:35;;;;;;;0.20;0.20;;;;;;;17.54;97.75;102260.53;20918161;27;20046;-75
2022/10/12 00:54:40;;;;;;;0.10;0.10;;;;;;;17.54;97.73;102268.63;20932083;27;20045;-76
2022/10/12 01:04:42;;;;;;;;;;;;;;;17.53;97.63;102266.91;20896996;27;20052;-75
2022/10/12 01:14:43;;;;;;;0.20;0.20;;;;;;;17.18;97.57;102201.91;20702087;28;19925;-76
2022/10/12 01:24:55;;;;;;;0.25;0.20;;;;;;;17.35;97.71;102239.34;20699366;28;20474;-76
2022/10/12 01:35:18;;;;;;;0.50;0.20;;;;;;;17.48;97.57;102246.63;20765848;27;20041;-75
2022/10/12 01:45:20;;;;;;;0.55;0.25;;;;;;;17.51;97.52;102257.22;20779771;27;20502;-75
2022/10/12 01:55:32;;;;;;;0.20;0.20;;;;;;;17.20;97.22;102190.06;20732224;27;20049;-75
2022/10/12 02:05:50;;;;;;;0.10;0.10;;;;;;;17.50;97.46;102239.31;20851625;27;20061;-75
2022/10/12 02:15:53;;;;;;;0.22;0.20;;;;;;;17.40;97.45;102212.13;20862430;27;20140;-75
2022/10/12 02:25:55;;;;;;;1.00;0.30;;;;;;;17.48;97.46;102215.19;20939561;27;20053;-75
2022/10/12 02:36:03;;;;;;;0.50;0.20;;;;;;;17.47;97.49;102210.75;20857517;27;20405;-75
2022/10/12 02:46:07;;;;;;;0.20;0.20;;;;;;;17.47;97.38;102202.69;20851244;27;20045;-75
2022/10/12 02:56:12;;;;;;;0.20;0.20;;;;;;;17.47;97.27;102191.91;20799351;27;20057;-75
2022/10/12 03:06:13;;;;;;;0.35;0.20;;;;;;;17.47;97.29;102191.06;20821451;27;20517;-75
2022/10/12 03:16:15;;;;;;;0.50;0.20;;;;;;;17.46;97.23;102179.41;20725918;28;20170;-75
2022/10/12 03:26:16;;;;;;;0.45;0.20;;;;;;;17.46;97.15;102181.25;20706939;28;20050;-75
2022/10/12 03:36:17;;;;;;;0.38;0.20;;;;;;;17.34;97.19;102161.41;20707809;28;20078;-75
2022/10/12 03:46:19;;;;;;;0.25;0.25;;;;;;;17.45;97.16;102183.06;20797746;27;20158;-75
2022/10/12 03:56:21;;;;;;;0.25;0.20;;;;;;;17.45;96.97;102193.84;20920949;27;20047;-75
2022/10/12 04:06:22;;;;;;;0.80;0.20;;;;;;;17.43;97.13;102163.47;20836752;27;20103;-76
2022/10/12 04:16:24;;;;;;;0.20;0.20;;;;;;;17.44;96.93;102167.00;20855556;27;20418;-75
2022/10/12 04:26:30;;;;;;;0.65;0.30;;;;;;;17.47;97.35;102161.44;20743686;27;20137;-75
2022/10/12 04:36:32;;;;;;;1.75;0.35;;;;;;;17.51;99.37;102166.50;20746721;27;20081;-76
2022/10/12 04:46:33;;;;;;;2.13;0.70;;;;;;;17.57;100.00;102161.66;20718292;27;20144;-75
2022/10/12 04:56:35;;;;;;;1.45;0.70;;;;;;;17.59;100.00;102162.44;20921619;27;20057;-76
2022/10/12 05:06:36;;;;;;;2.10;0.60;;;;;;;17.62;99.59;102164.91;20970270;27;20051;-76
2022/10/12 05:16:38;;;;;;;1.48;0.52;;;;;;;17.63;98.39;102163.94;20867847;27;20528;-76
2022/10/12 05:26:39;;;;;;;1.25;0.77;;;;;;;17.63;97.36;102159.44;20939728;27;20494;-76
2022/10/12 05:36:40;;;;;;;1.73;0.57;;;;;;;17.47;96.31;102132.69;20848071;27;20046;-75
2022/10/12 05:46:42;;;;;;;0.80;0.43;;;;;;;17.40;95.44;102116.06;20914325;27;20087;-75
2022/10/12 05:56:43;;;;;;;1.02;0.55;;;;;;;17.66;94.82;102159.22;20906380;27;20730;-76
2022/10/12 06:06:45;;;;;;;1.60;0.70;;;;;;;17.49;94.30;102116.44;20822999;27;20049;-76
2022/10/12 06:16:46;;;;;;;1.05;0.52;;;;;;;17.66;93.86;102143.06;20816797;27;20076;-76
2022/10/12 06:26:54;;;;;;;1.17;0.50;;;;;;;17.67;93.30;102143.91;20737052;27;20076;-76
2022/10/12 06:36:56;;;;;;;1.17;0.60;;;;;;;17.69;92.94;102136.63;20800239;27;20400;-75
2022/10/12 06:47:02;;;;;;;1.35;0.50;;;;;;;17.68;92.55;102141.13;20725246;27;20664;-75
2022/10/12 06:57:04;;;;;;;1.00;0.70;;;;;;;17.34;92.00;102083.34;20956525;27;20051;-76
2022/10/12 07:07:06;;;;;;;1.55;0.52;;;;;;;17.69;91.58;102142.00;20873411;27;20498;-75
2022/10/12 07:17:07;;;;;;;0.80;0.52;;;;;;;17.70;91.29;102141.03;20758639;27;20058;-76
2022/10/12 07:27:09;;;;;;;1.65;0.60;;;;;;;17.71;91.14;102137.38;20836433;27;20059;-76
2022/10/12 07:37:12;;;;;;;1.20;0.73;;;;;;;17.44;90.39;102089.81;20744603;27;20148;-76
2022/10/12 07:47:15;;;;;;;0.95;0.65;;;;;;;17.78;89.84;102141.38;20735023;27;20054;-75
2022/10/12 07:57:17;;;;;;;1.08;0.70;;;;;;;17.80;88.42;102150.22;20742993;27;20047;-74
2022/10/12 08:07:18;;;;;;;1.17;0.80;;;;;;;17.81;89.34;102149.25;20753518;27;20052;-75
2022/10/12 08:17:20;;;;;;;1.20;0.82;;;;;;;17.79;89.73;102143.09;20790268;27;20136;-74
2022/10/12 08:27:21;;;;;;;1.27;0.60;;;;;;;17.59;89.95;102111.28;20776121;27;20999;-74
2022/10/12 08:37:22;;;;;;;2.63;0.80;;;;;;;17.74;89.54;102141.69;20734156;27;20511;-74
2022/10/12 08:47:35;;;;;;;1.27;0.75;;;;;;;17.78;89.99;102136.00;20735839;27;20120;-74
2022/10/12 08:57:37;;;;;;;1.77;0.70;;;;;;;17.83;90.44;102132.97;20782686;27;20045;-74
2022/10/12 09:08:06;;;;;;;2.13;0.93;;;;;;;17.85;91.34;102131.03;20728974;27;20054;-74
2022/10/12 09:18:16;;;;;;;1.08;0.90;;;;;;;17.82;91.90;102132.13;20732207;28;20037;-75
2022/10/12 09:28:26;;;;;;;1.05;0.57;;;;;;;17.74;92.26;102114.75;20759572;27;20053;-74
2022/10/12 09:38:27;;;;;;;0.50;0.43;;;;;;;17.67;92.70;102096.31;20738495;27;20065;-75
2022/10/12 09:48:28;;;;;;;1.30;0.70;;;;;;;17.80;92.97;102128.66;20734923;27;20506;-74
2022/10/12 09:58:36;;;;;;;0.90;0.70;;;;;;;17.78;93.38;102122.53;20738882;27;20046;-75
2022/10/12 10:08:40;;;;;;;1.08;0.70;;;;;;;17.79;93.54;102116.16;20778774;27;20045;-74
2022/10/12 10:18:54;;;;;;;1.70;0.70;;;;;;;17.81;93.76;102113.34;20787792;27;20069;-74
2022/10/12 10:29:23;;;;;;;0.80;0.80;;;;;;;17.80;93.76;102109.81;20778053;27;20141;-74
2022/10/12 10:39:26;;;;;;;0.77;0.63;;;;;;;17.76;93.89;102100.22;20789825;27;20055;-74
2022/10/12 10:49:43;;;;;;;1.52;0.70;;;;;;;17.80;93.98;102087.38;20764318;27;20089;-75
2022/10/12 10:59:53;;;;;;;0.60;0.50;;;;;;;17.80;94.18;102082.00;20751904;27;20401;-74
2022/10/12 11:09:56;;;;;;;1.37;0.70;;;;;;;17.71;94.45;102053.91;20757625;27;20045;-74
2022/10/12 11:20:24;;;;;;;0.60;0.60;;;;;;;17.79;94.17;102054.22;20763561;27;20145;-74
2022/10/12 11:30:30;;;;;;;0.60;0.60;;;;;;;17.80;94.27;102039.78;20747893;27;20107;-74
2022/10/12 11:40:32;;;;;;;;;;;;;;;17.80;94.22;102036.19;20741668;27;20053;-74
2022/10/12 11:50:55;;;;;;;0.60;0.50;;;;;;;17.79;93.99;102016.50;20712828;27;19925;-74
2022/10/12 12:01:30;;;;;;;0.47;0.40;;;;;;;17.79;94.31;102007.53;20727427;27;20077;-74
2022/10/12 12:11:33;;;;;;;0.57;0.57;;;;;;;17.71;94.33;101986.56;20750331;27;20050;-74
2022/10/12 12:22:08;;;;;;;0.57;0.45;;;;;;;17.78;94.31;102001.31;20744193;27;20060;-75
2022/10/12 12:32:10;;;;;;;0.40;0.40;;;;;;;17.79;94.38;101959.06;20727861;27;20061;-74
2022/10/12 12:42:24;;;;;;;0.60;0.60;;;;;;;17.79;94.33;101959.06;20722680;27;20046;-75
2022/10/12 12:52:32;;;;;;;1.48;0.45;;;;;;;17.57;94.23;101912.13;20730389;27;20069;-75
2022/10/12 13:02:51;;;;;;;0.70;0.57;;;;;;;17.78;94.54;101925.91;20740908;27;20500;-75
2022/10/12 13:13:15;;;;;;;0.50;0.45;;;;;;;17.79;94.49;101914.16;20731580;27;20566;-75
2022/10/12 13:23:20;;;;;;;0.40;0.40;;;;;;;17.58;94.58;101869.91;20713824;27;20053;-74
2022/10/12 13:33:31;;;;;;;0.73;0.50;;;;;;;17.71;94.60;101880.66;20705438;27;20049;-73
2022/10/12 13:43:57;;;;;;;1.00;0.40;;;;;;;17.78;94.74;101874.72;20711285;27;20580;-74
2022/10/12 13:53:59;;;;;;;1.13;0.82;;;;;;;17.78;94.51;101869.34;20744780;27;20076;-75
2022/10/12 14:04:03;;;;;;;0.68;0.40;;;;;;;17.78;94.69;101858.56;20778973;27;20060;-74
2022/10/12 14:14:05;;;;;;;1.00;0.70;;;;;;;17.63;94.60;101836.28;20910433;27;20409;-74
2022/10/12 14:24:07;;;;;;;0.50;0.40;;;;;;;17.77;94.81;101854.16;20829923;27;20102;-74
2022/10/12 14:34:49;;;;;;;1.13;0.40;;;;;;;17.78;94.70;101838.81;20787397;27;20071;-74
2022/10/12 14:44:50;;;;;;;0.40;0.40;;;;;;;17.78;94.89;101845.09;20761352;27;20037;-74
2022/10/12 14:54:54;;;;;;;0.40;0.40;;;;;;;17.78;94.90;101839.72;20772575;27;20060;-75
2022/10/12 15:04:57;;;;;;;2.50;1.20;;;;;;;17.78;94.49;101834.31;20766592;27;20064;-75
2022/10/12 15:15:00;;;;;;;4.18;1.85;;;;;;;17.85;93.55;101820.41;20758522;27;20157;-75
2022/10/12 15:25:15;;;;;;;4.60;1.70;;;;;;;17.91;93.26;101825.31;20789402;27;20057;-76
2022/10/12 15:35:21;;;;;;;;;;;;;;;17.95;93.94;101816.03;20734199;27;20073;-75
2022/10/12 15:45:25;;;;;;;3.77;1.60;;;;;;;17.98;94.17;101794.25;20721398;27;19921;-75
2022/10/12 15:55:28;;;;;;;2.80;1.30;;;;;;;17.93;94.19;101788.34;20740156;27;20057;-76
2022/10/12 16:05:31;;;;;;;3.88;1.52;;;;;;;18.03;94.16;101794.78;20719602;27;20115;-76
2022/10/12 16:15:34;;;;;;;6.22;2.15;;;;;;;18.07;95.37;101790.88;20703293;27;20438;-77
2022/10/12 16:25:36;;;;;;;4.95;1.90;;;;;;;18.08;95.04;101781.84;20744988;27;20473;-76
2022/10/12 16:35:38;;;;;;;3.83;2.22;;;;;;;17.99;95.00;101774.41;20707005;27;21528;-76
2022/10/12 16:45:40;;;;;;;4.60;1.67;;;;;;;18.04;95.06;101799.22;20752826;27;20060;-75
2022/10/12 16:55:41;;;;;;;6.20;2.40;;;;;;;18.02;94.72;101803.84;20703783;27;20097;-76
2022/10/12 17:05:43;;;;;;;5.10;2.05;;;;;;;18.02;94.51;101819.19;20710635;27;20054;-76
2022/10/12 17:15:45;;;;;;;3.90;1.83;;;;;;;17.69;94.58;101754.22;20711948;27;20058;-76
2022/10/12 17:25:48;;;;;;;3.53;1.80;;;;;;;18.00;94.67;101792.31;20713754;27;20898;-82
2022/10/12 17:35:50;;;;;;;3.67;1.75;;;;;;;18.01;94.85;101812.91;20714924;27;20144;-78
2022/10/12 17:45:51;;;;;;;4.63;1.70;;;;;;;18.00;95.00;101776.13;20733736;27;20056;-78
2022/10/12 17:55:53;;;;;;;3.53;1.77;;;;;;;18.02;95.84;101774.22;20771888;27;20099;-77
2022/10/12 18:06:03;;;;;;;4.88;1.60;;;;;;;17.83;95.83;101769.31;20800957;27;20049;-77
2022/10/12 18:16:09;;;;;;;4.47;1.80;;;;;;;17.95;95.93;101786.41;20918610;27;20050;-77
2022/10/12 18:26:12;;;;;;;3.00;1.35;;;;;;;17.92;96.12;101781.25;20805429;27;20056;-76
2022/10/12 18:36:14;;;;;;;3.55;1.48;;;;;;;17.79;96.31;101755.25;20862491;27;20132;-76
2022/10/12 18:46:17;;;;;;;3.10;1.33;;;;;;;17.83;96.38;101756.72;20797763;27;20078;-77
2022/10/12 18:56:19;;;;;;;2.88;1.40;;;;;;;17.66;96.41;101749.03;20844588;27;20538;-76
2022/10/12 19:06:22;;;;;;;3.92;1.45;;;;;;;17.70;96.58;101750.53;20893662;27;20069;-76
2022/10/12 19:16:24;;;;;;;3.67;1.40;;;;;;;17.77;96.65;101740.16;20721675;27;20049;-76
2022/10/12 19:26:26;;;;;;;2.45;1.20;;;;;;;17.67;96.57;101726.50;20728340;27;20526;-78
2022/10/12 19:36:29;;;;;;;3.50;1.40;;;;;;;17.75;96.68;101725.94;20737453;27;20045;-78
2022/10/12 19:46:30;;;;;;;4.22;1.45;;;;;;;17.64;96.55;101710.59;20713942;27;20141;-78
2022/10/12 19:56:32;;;;;;;3.25;1.27;;;;;;;17.64;96.62;101715.97;20756900;27;20053;-78
2022/10/12 20:06:35;;;;;;;2.58;1.20;;;;;;;17.72;96.59;101713.59;20805004;27;20063;-78
2022/10/12 20:16:36;;;;;;;2.85;1.60;;;;;;;17.71;96.71;101713.69;20912415;27;20501;-78
2022/10/12 20:26:38;;;;;;;2.55;1.50;;;;;;;17.69;96.57;101711.97;20831499;27;20142;-78
2022/10/12 20:36:39;;;;;;;3.17;1.60;;;;;;;17.57;96.68;101690.47;20955198;27;20059;-78
2022/10/12 20:46:44;;;;;;;2.17;1.05;;;;;;;17.69;96.70;101694.97;20787979;27;20073;-78
2022/10/12 20:56:48;;;;;;;3.77;1.33;;;;;;;17.66;96.68;101679.88;20811250;27;20087;-78
2022/10/12 21:06:49;;;;;;;1.85;1.13;;;;;;;17.68;96.78;101698.63;20874579;27;20046;-78
2022/10/12 21:16:51;;;;;;;3.10;1.05;;;;;;;17.66;96.72;101679.88;20846736;27;20493;-78
2022/10/12 21:26:53;;;;;;;2.45;1.27;;;;;;;17.55;96.89;101661.00;20849076;27;20098;-78
2022/10/12 21:36:55;;;;;;;2.25;1.10;;;;;;;17.62;96.75;101659.56;20964066;27;20068;-78
2022/10/12 21:46:56;;;;;;;2.25;1.15;;;;;;;17.64;96.63;101654.03;20911396;27;20506;-77
2022/10/12 21:56:58;;;;;;;2.22;1.08;;;;;;;17.63;96.79;101642.41;20777805;27;20045;-78
2022/10/12 22:07:01;;;;;;;1.77;1.02;;;;;;;17.63;96.77;101647.81;20918369;27;20635;-78
2022/10/12 22:17:02;;;;;;;1.83;1.40;;;;;;;17.60;96.74;101639.97;20875540;27;20498;-78
2022/10/12 22:27:06;;;;;;;1.90;1.15;;;;;;;17.62;96.84;101639.84;20859388;27;20135;-78
2022/10/12 22:37:07;;;;;;;2.50;1.40;;;;;;;17.62;96.78;101629.06;20930315;27;20049;-78
2022/10/12 22:47:09;;;;;;;1.83;1.25;;;;;;;17.61;96.78;101616.56;20854495;27;20110;-79
2022/10/12 22:57:11;;;;;;;1.58;1.00;;;;;;;17.62;96.55;101634.44;20875574;27;20053;-79
2022/10/12 23:07:12;;;;;;;1.35;1.00;;;;;;;17.50;96.69;101615.56;20794333;27;20057;-82
2022/10/12 23:17:14;;;;;;;1.65;1.13;;;;;;;17.59;96.69;101607.75;20853844;27;20079;-78
2022/10/12 23:27:15;;;;;;;1.17;0.80;;;;;;;17.32;96.69;101584.66;20883343;27;20084;-78
2022/10/12 23:37:17;;;;;;;1.92;1.10;;;;;;;17.47;96.58;101585.34;20871821;27;20041;-78
2022/10/12 23:47:19;;;;;;;1.70;1.15;;;;;;;17.58;96.50;101598.84;20914196;27;20045;-78
2022/10/12 23:57:21;;;;;;;1.58;1.17;;;;;;;17.38;96.71;101568.06;20924515;27;20045;-78
